createdAt,value
2017-10-09T00:01:22.100Z,15.67
2017-10-09T00:03:49.410Z,19.70
2017-10-09T00:06:16.683Z,19.10
2017-10-09T00:08:43.985Z,24.57
2017-10-09T00:11:11.263Z,36.90
2017-10-09T00:13:38.559Z,25.53
2017-10-09T00:16:05.858Z,27.10
2017-10-09T00:18:33.127Z,32.67
2017-10-09T00:21:00.415Z,35.73
2017-10-09T00:23:27.684Z,32.63
2017-10-09T00:25:54.970Z,28.80
2017-10-09T00:28:22.240Z,23.23
2017-10-09T00:30:49.546Z,34.50
2017-10-09T00:33:16.819Z,30.87
2017-10-09T00:35:44.111Z,23.90
2017-10-09T00:38:11.383Z,35.97
2017-10-09T00:40:38.670Z,26.13
2017-10-09T00:43:05.946Z,46.00
2017-10-09T00:45:33.238Z,25.73
2017-10-09T00:48:00.542Z,24.33
2017-10-09T00:50:27.851Z,65.57
2017-10-09T00:52:55.186Z,34.93
2017-10-09T00:55:22.502Z,32.97
2017-10-09T00:57:49.810Z,35.73
2017-10-09T01:00:17.119Z,43.97
2017-10-09T01:02:44.503Z,35.83
2017-10-09T01:05:11.815Z,71.10
2017-10-09T01:07:39.116Z,44.50
2017-10-09T01:10:06.459Z,37.30
2017-10-09T01:12:33.748Z,31.23
2017-10-09T01:15:01.084Z,67.33
2017-10-09T01:17:28.382Z,60.27
2017-10-09T01:19:55.681Z,33.87
2017-10-09T01:22:22.990Z,37.60
2017-10-09T01:24:50.305Z,34.30
2017-10-09T01:27:17.598Z,37.07
2017-10-09T01:29:44.870Z,31.80
2017-10-09T01:32:12.158Z,51.33
2017-10-09T01:34:39.431Z,33.73
2017-10-09T01:37:06.722Z,36.90
2017-10-09T01:39:33.995Z,31.87
2017-10-09T01:42:01.286Z,34.90
2017-10-09T01:44:28.565Z,36.93
2017-10-09T01:46:55.854Z,38.73
2017-10-09T01:49:23.128Z,37.60
2017-10-09T01:51:50.425Z,38.43
2017-10-09T01:54:17.695Z,50.60
2017-10-09T01:56:44.982Z,47.87
2017-10-09T01:59:12.250Z,35.17
2017-10-09T02:01:39.542Z,44.87
2017-10-09T02:04:06.819Z,53.33
2017-10-09T02:06:34.107Z,43.50
2017-10-09T02:09:01.374Z,36.60
2017-10-09T02:11:28.666Z,53.07
2017-10-09T02:13:55.953Z,37.73
2017-10-09T02:16:23.232Z,35.40
2017-10-09T02:18:50.523Z,43.60
2017-10-09T02:21:17.797Z,39.30
2017-10-09T02:23:45.082Z,35.70
2017-10-09T02:26:12.362Z,40.13
2017-10-09T02:28:39.659Z,50.03
2017-10-09T02:31:06.932Z,42.30
2017-10-09T02:33:34.214Z,38.40
2017-10-09T02:36:01.482Z,37.87
2017-10-09T02:38:28.780Z,47.50
2017-10-09T02:40:56.050Z,49.00
2017-10-09T02:43:23.355Z,63.83
2017-10-09T02:45:50.614Z,36.13
2017-10-09T02:48:17.907Z,36.47
2017-10-09T02:50:45.199Z,63.50
2017-10-09T02:53:12.487Z,39.97
2017-10-09T02:55:39.754Z,59.10
2017-10-09T02:58:07.050Z,31.73
2017-10-09T03:00:34.314Z,44.17
2017-10-09T03:03:01.606Z,34.73
2017-10-09T03:05:28.874Z,35.50
2017-10-09T03:07:56.179Z,46.67
2017-10-09T03:10:23.452Z,30.60
2017-10-09T03:12:50.719Z,29.80
2017-10-09T03:15:18.002Z,40.27
2017-10-09T03:17:45.275Z,24.50
2017-10-09T03:20:12.571Z,17.50
2017-10-09T03:22:43.797Z,24.60
2017-10-09T03:25:29.914Z,17.20
2017-10-09T03:28:12.095Z,16.63
2017-10-09T03:30:39.359Z,29.73
2017-10-09T03:35:40.424Z,22.40
2017-10-09T03:38:07.690Z,28.40
2017-10-09T03:40:34.978Z,23.30
2017-10-09T03:43:02.255Z,29.20
2017-10-09T03:45:29.546Z,36.97
2017-10-09T03:47:56.814Z,30.00
2017-10-09T03:50:24.103Z,36.70
2017-10-09T03:52:51.378Z,48.37
2017-10-09T03:55:18.666Z,29.67
2017-10-09T03:57:45.938Z,33.50
2017-10-09T04:00:13.227Z,33.93
2017-10-09T04:02:40.494Z,29.63
2017-10-09T04:05:07.783Z,27.37
2017-10-09T04:07:35.050Z,29.77
2017-10-09T04:10:02.352Z,30.10
2017-10-09T04:12:29.618Z,31.80
2017-10-09T04:14:56.926Z,23.60
2017-10-09T04:17:24.203Z,49.87
2017-10-09T04:19:51.479Z,28.10
2017-10-09T04:22:18.778Z,34.13
2017-10-09T04:24:46.046Z,24.80
2017-10-09T04:27:13.338Z,26.10
2017-10-09T04:29:40.606Z,29.57
2017-10-09T04:32:07.899Z,26.27
2017-10-09T04:34:36.016Z,22.60
2017-10-09T04:37:03.299Z,38.17
2017-10-09T04:39:30.566Z,32.37
2017-10-09T04:41:57.855Z,23.00
2017-10-09T04:44:25.123Z,23.33
2017-10-09T04:46:52.411Z,26.40
2017-10-09T04:49:19.675Z,38.43
2017-10-09T04:51:46.963Z,37.10
2017-10-09T04:54:14.234Z,25.70
2017-10-09T04:56:41.516Z,18.53
2017-10-09T04:59:08.864Z,22.80
2017-10-09T05:01:36.157Z,29.87
2017-10-09T05:04:03.427Z,39.47
2017-10-09T05:06:30.715Z,26.50
2017-10-09T05:08:57.981Z,31.40
2017-10-09T05:11:25.284Z,25.30
2017-10-09T05:13:52.595Z,26.83
2017-10-09T05:16:19.941Z,52.63
2017-10-09T05:18:47.206Z,36.23
2017-10-09T05:21:14.474Z,43.57
2017-10-09T05:23:41.810Z,24.93
2017-10-09T05:26:09.091Z,24.83
2017-10-09T05:28:36.438Z,29.80
2017-10-09T05:31:03.707Z,25.30
2017-10-09T05:33:31.002Z,27.53
2017-10-09T05:35:58.299Z,23.13
2017-10-09T05:38:25.571Z,21.80
2017-10-09T05:40:52.868Z,33.50
2017-10-09T05:43:20.147Z,62.43
2017-10-09T05:45:47.442Z,45.67
2017-10-09T05:48:14.742Z,21.90
2017-10-09T05:50:42.019Z,23.07
2017-10-09T05:53:09.327Z,40.30
2017-10-09T05:55:36.598Z,21.33
2017-10-09T05:58:03.881Z,40.90
2017-10-09T06:00:31.193Z,21.90
2017-10-09T06:02:58.462Z,20.77
2017-10-09T06:05:25.754Z,37.27
2017-10-09T06:07:53.113Z,30.53
2017-10-09T06:10:20.395Z,33.43
2017-10-09T06:12:47.699Z,34.83
2017-10-09T06:15:14.995Z,23.83
2017-10-09T06:17:42.267Z,42.77
2017-10-09T06:20:09.562Z,20.10
2017-10-09T06:22:36.863Z,57.93
2017-10-09T06:25:04.137Z,27.37
2017-10-09T06:27:31.438Z,26.93
2017-10-09T06:29:58.731Z,24.37
2017-10-09T06:32:26.034Z,45.63
2017-10-09T06:34:53.302Z,24.63
2017-10-09T06:37:20.575Z,48.80
2017-10-09T06:39:47.870Z,46.43
2017-10-09T06:42:15.148Z,36.67
2017-10-09T06:44:42.468Z,43.50
2017-10-09T06:47:09.740Z,30.40
2017-10-09T06:49:37.007Z,34.47
2017-10-09T06:52:04.312Z,45.53
2017-10-09T06:54:31.578Z,51.90
2017-10-09T06:56:58.886Z,45.20
2017-10-09T06:59:26.158Z,40.73
2017-10-09T07:01:53.427Z,37.07
2017-10-09T07:04:20.742Z,58.03
2017-10-09T07:06:48.024Z,47.70
2017-10-09T07:09:15.297Z,41.53
2017-10-09T07:11:42.599Z,51.03
2017-10-09T07:14:09.875Z,37.80
2017-10-09T07:16:37.154Z,38.23
2017-10-09T07:19:04.455Z,44.03
2017-10-09T07:21:31.769Z,45.10
2017-10-09T07:23:59.067Z,36.27
2017-10-09T07:26:26.342Z,52.37
2017-10-09T07:28:53.676Z,36.07
2017-10-09T07:31:20.963Z,38.27
2017-10-09T07:33:48.253Z,40.17
2017-10-09T07:36:15.551Z,30.60
2017-10-09T07:38:42.850Z,42.07
2017-10-09T07:41:10.166Z,41.60
2017-10-09T07:43:37.494Z,29.93
2017-10-09T07:46:04.803Z,33.17
2017-10-09T07:48:32.111Z,35.13
2017-10-09T07:50:59.430Z,30.17
2017-10-09T07:53:26.730Z,33.57
2017-10-09T07:55:54.051Z,29.00
2017-10-09T07:58:21.345Z,28.67
2017-10-09T08:00:48.636Z,31.17
2017-10-09T08:03:15.939Z,32.10
2017-10-09T08:05:43.260Z,28.20
2017-10-09T08:08:10.554Z,30.80
2017-10-09T08:10:37.845Z,32.50
2017-10-09T08:13:05.147Z,37.30
2017-10-09T08:15:32.427Z,24.80
2017-10-09T08:17:59.750Z,26.87
2017-10-09T08:20:27.027Z,30.70
2017-10-09T08:22:54.299Z,28.30
2017-10-09T08:25:21.611Z,25.90
2017-10-09T08:27:49.048Z,23.47
2017-10-09T08:30:16.365Z,30.23
2017-10-09T08:32:43.637Z,26.90
2017-10-09T08:35:10.941Z,23.20
2017-10-09T08:37:38.234Z,23.27
2017-10-09T08:40:05.535Z,32.80
2017-10-09T08:42:32.851Z,23.90
2017-10-09T08:45:00.130Z,27.17
2017-10-09T08:47:27.407Z,24.13
2017-10-09T08:49:54.708Z,27.43
2017-10-09T08:52:22.028Z,22.80
2017-10-09T08:54:49.306Z,23.53
2017-10-09T08:57:16.591Z,25.27
2017-10-09T08:59:43.903Z,24.87
2017-10-09T09:02:11.183Z,24.33
2017-10-09T09:04:38.484Z,22.63
2017-10-09T09:07:05.791Z,24.27
2017-10-09T09:09:33.118Z,20.20
2017-10-09T09:12:00.405Z,20.70
2017-10-09T09:14:27.720Z,21.63
2017-10-09T09:16:55.007Z,30.90
2017-10-09T09:19:22.315Z,21.93
2017-10-09T09:21:49.598Z,23.03
2017-10-09T09:24:16.943Z,23.30
2017-10-09T09:26:44.226Z,26.27
2017-10-09T09:29:11.611Z,22.53
2017-10-09T09:31:38.903Z,22.50
2017-10-09T09:34:06.207Z,22.23
2017-10-09T09:36:33.473Z,21.33
2017-10-09T09:39:00.779Z,19.80
2017-10-09T09:41:28.696Z,18.40
2017-10-09T09:43:55.969Z,25.53
2017-10-09T09:46:23.275Z,17.80
2017-10-09T09:48:50.543Z,16.33
2017-10-09T09:51:17.811Z,15.87
2017-10-09T09:53:45.115Z,15.17
2017-10-09T09:56:12.387Z,14.20
2017-10-09T09:58:39.690Z,14.70
2017-10-09T10:01:06.995Z,16.63
2017-10-09T10:03:34.270Z,16.37
2017-10-09T10:06:01.545Z,14.67
2017-10-09T10:08:28.838Z,14.63
2017-10-09T10:10:56.115Z,16.20
2017-10-09T10:13:23.414Z,16.47
2017-10-09T10:15:50.711Z,14.10
2017-10-09T10:18:18.012Z,20.50
2017-10-09T10:20:45.272Z,12.87
2017-10-09T10:23:12.567Z,10.87
2017-10-09T10:25:39.831Z,11.30
2017-10-09T10:28:07.122Z,10.37
2017-10-09T10:30:34.406Z,9.47
2017-10-09T10:33:01.691Z,8.10
2017-10-09T10:35:28.951Z,11.03
2017-10-09T10:37:56.250Z,9.77
2017-10-09T10:40:23.510Z,8.30
2017-10-09T10:42:50.767Z,7.50
2017-10-09T10:45:18.058Z,9.47
2017-10-09T10:47:45.323Z,11.60
2017-10-09T10:50:12.623Z,12.20
2017-10-09T10:52:39.903Z,8.07
2017-10-09T10:55:07.160Z,6.80
2017-10-09T10:57:34.450Z,11.93
2017-10-09T11:00:01.759Z,9.23
2017-10-09T11:02:29.023Z,7.40
2017-10-09T11:04:56.283Z,7.10
2017-10-09T11:07:23.570Z,9.37
2017-10-09T11:09:50.858Z,5.60
2017-10-09T11:12:18.119Z,15.00
2017-10-09T11:14:45.402Z,7.77
2017-10-09T11:17:12.682Z,7.13
2017-10-09T11:19:39.981Z,10.77
2017-10-09T11:22:07.292Z,11.67
2017-10-09T11:24:34.555Z,8.47
2017-10-09T11:27:01.816Z,8.23
2017-10-09T11:29:29.123Z,8.30
2017-10-09T11:31:56.382Z,6.70
2017-10-09T11:34:23.671Z,5.57
2017-10-09T11:36:50.934Z,6.43
2017-10-09T11:39:18.226Z,5.20
2017-10-09T11:41:45.483Z,6.83
2017-10-09T11:44:12.742Z,9.50
2017-10-09T11:46:40.036Z,5.10
2017-10-09T11:49:07.295Z,6.73
2017-10-09T11:51:34.545Z,6.93
2017-10-09T11:54:01.825Z,5.23
2017-10-09T11:56:29.115Z,5.73
2017-10-09T11:58:56.402Z,4.23
2017-10-09T12:01:23.668Z,7.23
2017-10-09T12:03:50.950Z,4.20
2017-10-09T12:06:18.216Z,4.93
2017-10-09T12:08:45.478Z,11.97
2017-10-09T12:11:12.774Z,5.63
2017-10-09T12:13:40.039Z,6.17
2017-10-09T12:16:07.299Z,4.37
2017-10-09T12:18:34.587Z,4.90
2017-10-09T12:21:01.853Z,4.40
2017-10-09T12:23:29.142Z,5.60
2017-10-09T12:25:56.403Z,6.33
2017-10-09T12:28:23.679Z,6.00
2017-10-09T12:30:50.971Z,3.57
2017-10-09T12:33:18.234Z,3.50
2017-10-09T12:35:45.528Z,3.30
2017-10-09T12:38:12.792Z,5.90
2017-10-09T12:40:40.048Z,4.63
2017-10-09T12:43:07.354Z,2.93
2017-10-09T12:45:34.606Z,5.23
2017-10-09T12:48:01.871Z,3.93
2017-10-09T12:50:29.159Z,2.80
2017-10-09T12:52:56.419Z,2.40
2017-10-09T12:55:23.710Z,2.70
2017-10-09T12:57:50.975Z,2.80
2017-10-09T13:00:18.276Z,3.13
2017-10-09T13:02:45.572Z,3.30
2017-10-09T13:05:12.834Z,3.13
2017-10-09T13:07:40.095Z,6.47
2017-10-09T13:10:07.420Z,4.60
2017-10-09T13:12:34.678Z,4.83
2017-10-09T13:15:01.936Z,6.60
2017-10-09T13:17:29.227Z,3.80
2017-10-09T13:19:56.486Z,5.40
2017-10-09T13:22:23.775Z,5.60
2017-10-09T13:24:51.049Z,3.60
2017-10-09T13:27:18.336Z,2.50
2017-10-09T13:29:45.642Z,2.67
2017-10-09T13:32:12.934Z,6.47
2017-10-09T13:34:40.225Z,7.07
2017-10-09T13:37:07.474Z,5.50
2017-10-09T13:39:34.777Z,4.10
2017-10-09T13:42:02.054Z,2.60
2017-10-09T13:44:29.334Z,5.70
2017-10-09T13:46:56.627Z,4.23
2017-10-09T13:49:23.886Z,6.33
2017-10-09T13:51:51.191Z,2.97
2017-10-09T13:54:18.464Z,2.67
2017-10-09T13:56:45.724Z,4.80
2017-10-09T13:59:13.019Z,2.63
2017-10-09T14:01:40.291Z,2.63
2017-10-09T14:04:07.547Z,3.07
2017-10-09T14:06:34.833Z,5.50
2017-10-09T14:09:02.099Z,5.10
2017-10-09T14:11:29.394Z,2.93
2017-10-09T14:13:56.659Z,2.67
2017-10-09T14:16:23.927Z,2.70
2017-10-09T14:18:51.212Z,4.47
2017-10-09T14:21:18.504Z,2.60
2017-10-09T14:23:45.791Z,3.07
2017-10-09T14:26:13.052Z,3.07
2017-10-09T14:28:40.299Z,3.30
2017-10-09T14:31:07.619Z,4.80
2017-10-09T14:40:56.700Z,3.27
2017-10-09T14:43:23.976Z,4.50
2017-10-09T14:45:51.232Z,5.17
2017-10-09T14:48:18.528Z,8.63
2017-10-09T14:50:45.788Z,4.93
2017-10-09T14:53:13.043Z,3.60
2017-10-09T14:55:40.326Z,6.00
2017-10-09T14:58:07.618Z,3.57
2017-10-09T15:00:34.884Z,7.87
2017-10-09T15:03:02.167Z,5.87
2017-10-09T15:05:29.428Z,7.83
2017-10-09T15:07:56.714Z,3.43
2017-10-09T15:10:23.996Z,4.10
2017-10-09T15:12:51.254Z,5.67
2017-10-09T15:15:18.535Z,5.87
2017-10-09T15:17:45.797Z,4.17
2017-10-09T15:20:13.083Z,4.83
2017-10-09T15:22:40.378Z,7.67
2017-10-09T15:25:07.672Z,5.93
2017-10-09T15:27:34.956Z,7.07
2017-10-09T15:30:02.216Z,6.90
2017-10-09T15:32:29.512Z,4.50
2017-10-09T15:34:56.776Z,6.33
2017-10-09T15:37:24.075Z,3.90
2017-10-09T15:39:51.332Z,5.60
2017-10-09T15:42:18.587Z,8.70
2017-10-09T15:44:45.879Z,6.40
2017-10-09T15:47:13.135Z,8.23
2017-10-09T15:49:40.419Z,7.90
2017-10-09T15:52:07.714Z,4.00
2017-10-09T15:54:35.060Z,6.73
2017-10-09T15:57:02.255Z,3.23
2017-10-09T15:59:29.539Z,4.30
2017-10-09T16:01:56.824Z,4.70
2017-10-09T16:04:24.095Z,3.40
2017-10-09T16:06:51.375Z,5.10
2017-10-09T16:09:18.634Z,3.90
2017-10-09T16:11:45.931Z,3.70
2017-10-09T16:14:13.201Z,4.17
2017-10-09T16:16:40.450Z,5.43
2017-10-09T16:19:07.744Z,5.07
2017-10-09T16:21:35.026Z,7.50
2017-10-09T16:24:02.287Z,4.37
2017-10-09T16:26:29.583Z,5.13
2017-10-09T16:28:56.840Z,4.97
2017-10-09T16:31:24.097Z,6.33
2017-10-09T16:33:51.392Z,10.30
2017-10-09T16:36:18.651Z,7.33
2017-10-09T16:38:45.907Z,4.70
2017-10-09T16:41:13.198Z,6.23
2017-10-09T16:43:40.461Z,6.23
2017-10-09T16:46:07.755Z,4.60
2017-10-09T16:48:35.020Z,7.47
2017-10-09T16:51:02.313Z,6.23
2017-10-09T16:53:29.562Z,6.67
2017-10-09T16:55:56.869Z,5.50
2017-10-09T16:58:24.131Z,8.30
2017-10-09T17:00:51.393Z,6.73
2017-10-09T17:03:18.704Z,6.03
2017-10-09T17:05:45.960Z,9.30
2017-10-09T17:08:13.215Z,7.63
2017-10-09T17:10:40.507Z,7.33
2017-10-09T17:13:07.763Z,7.63
2017-10-09T17:15:35.026Z,12.03
2017-10-09T17:18:02.327Z,5.20
2017-10-09T17:20:29.587Z,5.10
2017-10-09T17:22:56.843Z,4.07
2017-10-09T17:25:24.128Z,4.23
2017-10-09T17:27:51.596Z,6.10
2017-10-09T17:30:18.831Z,9.60
2017-10-09T17:32:46.115Z,6.93
2017-10-09T17:35:13.403Z,6.63
2017-10-09T17:37:40.656Z,9.60
2017-10-09T17:40:07.943Z,4.80
2017-10-09T17:42:35.228Z,6.50
2017-10-09T17:45:02.487Z,5.27
2017-10-09T17:47:29.782Z,5.57
2017-10-09T17:49:57.060Z,8.30
2017-10-09T17:52:24.317Z,7.00
2017-10-09T17:54:51.861Z,5.83
2017-10-09T17:57:19.113Z,9.23
2017-10-09T17:59:46.417Z,10.10
2017-10-09T18:02:13.690Z,9.30
2017-10-09T18:04:40.980Z,9.03
2017-10-09T18:07:08.267Z,5.17
2017-10-09T18:09:35.547Z,6.90
2017-10-09T18:12:02.816Z,9.07
2017-10-09T18:14:30.115Z,13.23
2017-10-09T18:16:57.391Z,10.70
2017-10-09T18:19:24.708Z,8.87
2017-10-09T18:21:51.982Z,7.20
2017-10-09T18:24:19.242Z,6.33
2017-10-09T18:26:46.528Z,6.30
2017-10-09T18:29:13.800Z,6.63
2017-10-09T18:31:41.099Z,7.53
2017-10-09T18:34:08.363Z,7.87
2017-10-09T18:36:35.623Z,8.13
2017-10-09T18:39:02.912Z,7.50
2017-10-09T18:41:30.170Z,11.57
2017-10-09T18:43:57.470Z,11.07
2017-10-09T18:46:24.740Z,7.10
2017-10-09T18:48:52.011Z,11.57
2017-10-09T18:51:19.312Z,6.33
2017-10-09T18:53:46.583Z,6.00
2017-10-09T18:56:13.878Z,11.90
2017-10-09T18:58:41.131Z,7.40
2017-10-09T19:01:08.428Z,6.90
2017-10-09T19:03:35.719Z,4.00
2017-10-09T19:06:02.995Z,6.20
2017-10-09T19:08:30.320Z,5.63
2017-10-09T19:10:57.579Z,8.97
2017-10-09T19:13:24.844Z,6.33
2017-10-09T19:15:52.127Z,5.33
2017-10-09T19:18:19.378Z,4.70
2017-10-09T19:20:46.678Z,10.37
2017-10-09T19:23:13.978Z,5.93
2017-10-09T19:25:41.238Z,4.87
2017-10-09T19:28:08.564Z,5.97
2017-10-09T19:30:35.832Z,5.60
2017-10-09T19:33:03.107Z,6.97
2017-10-09T19:35:30.414Z,5.70
2017-10-09T19:37:57.679Z,5.43
2017-10-09T19:40:24.968Z,4.83
2017-10-09T19:42:52.248Z,7.30
2017-10-09T19:45:19.547Z,5.57
2017-10-09T19:47:46.840Z,5.77
2017-10-09T19:50:14.106Z,5.40
2017-10-09T19:52:42.193Z,4.83
2017-10-09T19:55:09.608Z,4.67
2017-10-09T19:57:36.870Z,6.57
2017-10-09T20:00:04.123Z,6.37
2017-10-09T20:02:31.413Z,9.70
2017-10-09T20:04:58.695Z,4.47
2017-10-09T20:07:25.951Z,4.50
2017-10-09T20:09:53.247Z,6.00
2017-10-09T20:12:20.514Z,7.03
2017-10-09T20:14:47.800Z,6.87
2017-10-09T20:17:15.087Z,12.77
2017-10-09T20:19:42.344Z,5.30
2017-10-09T20:22:09.630Z,9.83
2017-10-09T20:24:36.932Z,9.30
2017-10-09T20:27:04.232Z,7.00
2017-10-09T20:29:31.484Z,7.80
2017-10-09T20:31:58.751Z,7.23
2017-10-09T20:34:26.046Z,7.23
2017-10-09T20:36:53.334Z,7.83
2017-10-09T20:39:20.618Z,9.47
2017-10-09T20:41:47.889Z,11.93
2017-10-09T20:44:15.177Z,8.07
2017-10-09T20:46:42.488Z,11.73
2017-10-09T20:49:09.755Z,6.43
2017-10-09T20:51:37.015Z,10.07
2017-10-09T20:54:04.290Z,9.13
2017-10-09T20:56:31.555Z,9.20
2017-10-09T20:58:58.878Z,6.07
2017-10-09T21:01:26.134Z,8.53
2017-10-09T21:03:53.396Z,15.70
2017-10-09T21:06:20.683Z,6.80
2017-10-09T21:08:47.957Z,9.17
2017-10-09T21:11:15.248Z,6.43
2017-10-09T21:13:42.544Z,12.30
2017-10-09T21:16:09.818Z,9.83
2017-10-09T21:18:37.089Z,20.03
2017-10-09T21:21:04.358Z,8.17
2017-10-09T21:23:31.665Z,10.97
2017-10-09T21:25:58.960Z,16.27
2017-10-09T21:28:26.264Z,6.90
2017-10-09T21:30:53.537Z,9.70
2017-10-09T21:33:20.811Z,12.20
2017-10-09T21:35:48.102Z,9.07
2017-10-09T21:38:15.419Z,14.83
2017-10-09T21:40:42.695Z,8.20
2017-10-09T21:43:09.999Z,14.93
2017-10-09T21:45:37.338Z,10.60
2017-10-09T21:48:04.607Z,8.80
2017-10-09T21:50:31.865Z,7.57
2017-10-09T21:52:59.204Z,8.70
2017-10-09T21:55:26.485Z,7.80
2017-10-09T21:57:53.784Z,8.33
2017-10-09T22:00:21.070Z,8.30
2017-10-09T22:02:48.391Z,9.20
2017-10-09T22:05:15.656Z,9.80
2017-10-09T22:07:42.984Z,6.10
2017-10-09T22:10:10.256Z,8.77
2017-10-09T22:12:37.540Z,16.80
2017-10-09T22:15:04.835Z,14.73
2017-10-09T22:17:32.107Z,8.13
2017-10-09T22:19:59.459Z,9.50
2017-10-09T22:22:26.733Z,7.40
2017-10-09T22:24:54.035Z,7.67
2017-10-09T22:27:21.475Z,9.03
2017-10-09T22:29:48.770Z,10.30
2017-10-09T22:32:16.063Z,15.57
2017-10-09T22:34:43.357Z,10.77
2017-10-09T22:37:10.644Z,9.57
2017-10-09T22:39:37.943Z,11.67
2017-10-09T22:42:05.291Z,13.33
2017-10-09T22:44:32.583Z,10.50
2017-10-09T22:46:59.927Z,8.60
2017-10-09T22:49:27.227Z,18.80
2017-10-09T22:51:54.507Z,8.03
2017-10-09T22:54:27.687Z,11.50
2017-10-09T22:56:54.991Z,12.40
2017-10-09T22:59:22.275Z,12.53
2017-10-09T23:01:49.578Z,11.27
2017-10-09T23:04:16.835Z,11.70
2017-10-09T23:06:44.138Z,15.97
2017-10-09T23:09:11.423Z,12.27
2017-10-09T23:11:38.721Z,22.50
2017-10-09T23:14:06.016Z,13.13
2017-10-09T23:16:33.291Z,14.40
2017-10-09T23:19:00.595Z,13.63
2017-10-09T23:21:27.864Z,15.83
2017-10-09T23:23:55.183Z,10.83
2017-10-09T23:26:22.455Z,12.93
2017-10-09T23:28:49.723Z,13.47
2017-10-09T23:31:17.528Z,10.23
2017-10-09T23:33:44.799Z,16.30
2017-10-09T23:36:12.087Z,9.97
2017-10-09T23:38:39.347Z,17.80
2017-10-09T23:41:06.639Z,9.63
2017-10-09T23:43:33.898Z,9.20
2017-10-09T23:46:01.191Z,8.97
2017-10-09T23:48:28.457Z,15.30
2017-10-09T23:50:55.728Z,10.00
2017-10-09T23:53:23.115Z,10.03
2017-10-09T23:55:50.382Z,15.13
2017-10-09T23:58:17.663Z,11.67
